createdAt,value
2022-12-09T00:02:25.004Z,10.40
2022-12-09T00:05:26.656Z,9.83
2022-12-09T00:08:28.269Z,10.38
2022-12-09T00:11:30.106Z,10.20
2022-12-09T00:14:31.737Z,11.20
2022-12-09T00:17:33.374Z,10.10
2022-12-09T00:20:35.118Z,11.13
2022-12-09T00:23:36.894Z,11.63
2022-12-09T00:26:38.577Z,10.90
2022-12-09T00:29:40.539Z,11.07
2022-12-09T00:32:43.025Z,10.70
2022-12-09T00:35:44.638Z,10.33
2022-12-09T00:38:46.576Z,11.38
2022-12-09T00:41:50.194Z,11.88
2022-12-09T00:44:52.090Z,11.53
2022-12-09T00:47:54.208Z,11.55
2022-12-09T00:50:55.882Z,11.60
2022-12-09T00:53:57.478Z,11.55
2022-12-09T00:57:01.072Z,12.07
2022-12-09T01:00:03.791Z,11.05
2022-12-09T01:03:05.939Z,11.85
2022-12-09T01:06:11.896Z,12.10
2022-12-09T01:09:14.047Z,12.45
2022-12-09T01:12:15.708Z,12.05
2022-12-09T01:15:17.607Z,12.77
2022-12-09T01:18:19.219Z,11.57
2022-12-09T01:21:21.247Z,12.40
2022-12-09T01:24:23.522Z,11.75
2022-12-09T01:27:25.507Z,11.65
2022-12-09T01:30:27.192Z,12.45
2022-12-09T01:33:29.415Z,12.50
2022-12-09T01:36:31.271Z,12.43
2022-12-09T01:39:32.836Z,12.68
2022-12-09T01:42:34.665Z,12.70
2022-12-09T01:45:41.011Z,12.23
2022-12-09T01:48:46.403Z,12.20
2022-12-09T01:51:56.970Z,12.77
2022-12-09T01:54:59.100Z,12.68
2022-12-09T01:58:00.960Z,12.70
2022-12-09T02:01:02.762Z,12.45
2022-12-09T02:04:05.793Z,13.27
2022-12-09T02:07:10.768Z,12.77
2022-12-09T02:10:15.573Z,12.00
2022-12-09T02:13:47.289Z,12.30
2022-12-09T02:17:20.809Z,12.83
2022-12-09T02:20:32.709Z,12.00
2022-12-09T02:23:40.759Z,11.90
2022-12-09T02:27:07.445Z,11.93
2022-12-09T02:30:20.546Z,12.38
2022-12-09T02:33:36.820Z,11.75
2022-12-09T02:36:54.002Z,12.38
2022-12-09T02:40:20.118Z,11.87
2022-12-09T02:43:28.452Z,11.05
2022-12-09T02:46:33.651Z,12.02
2022-12-09T02:49:37.443Z,12.53
2022-12-09T02:52:40.084Z,11.85
2022-12-09T02:55:45.682Z,11.90
2022-12-09T02:58:49.029Z,11.40
2022-12-09T03:02:12.371Z,11.50
2022-12-09T03:05:34.101Z,11.63
2022-12-09T03:08:42.091Z,12.27
2022-12-09T03:11:45.466Z,11.93
2022-12-09T03:14:52.787Z,13.00
2022-12-09T03:17:57.003Z,12.88
2022-12-09T03:20:58.943Z,11.80
2022-12-09T03:24:02.083Z,12.25
2022-12-09T03:27:09.150Z,12.25
2022-12-09T03:30:12.032Z,12.13
2022-12-09T03:33:18.046Z,12.45
2022-12-09T03:36:22.454Z,13.00
2022-12-09T03:39:37.572Z,12.98
2022-12-09T03:42:47.970Z,13.27
2022-12-09T03:45:51.386Z,12.82
2022-12-09T03:48:52.970Z,12.27
2022-12-09T03:52:00.940Z,12.13
2022-12-09T03:55:09.407Z,12.27
2022-12-09T03:58:13.825Z,11.07
2022-12-09T04:01:16.416Z,12.23
2022-12-09T04:04:18.210Z,11.50
2022-12-09T04:07:20.238Z,12.15
2022-12-09T04:10:21.799Z,12.15
2022-12-09T04:13:23.644Z,11.27
2022-12-09T04:16:26.014Z,11.45
2022-12-09T04:19:27.763Z,11.68
2022-12-09T04:22:30.096Z,11.50
2022-12-09T04:25:32.021Z,11.57
2022-12-09T04:28:33.722Z,12.20
2022-12-09T04:31:35.288Z,11.52
2022-12-09T04:34:37.287Z,12.35
2022-12-09T04:37:39.104Z,11.88
2022-12-09T04:40:40.962Z,12.23
2022-12-09T04:43:42.651Z,12.93
2022-12-09T04:46:44.428Z,12.55
2022-12-09T04:49:46.036Z,12.93
2022-12-09T04:52:47.680Z,12.07
2022-12-09T04:55:49.642Z,12.93
2022-12-09T04:58:51.865Z,12.27
2022-12-09T05:01:53.524Z,12.73
2022-12-09T05:04:55.422Z,11.70
2022-12-09T05:07:57.917Z,12.15
2022-12-09T05:11:00.859Z,11.85
2022-12-09T05:14:02.989Z,12.63
2022-12-09T05:17:04.761Z,11.73
2022-12-09T05:20:08.029Z,11.90
2022-12-09T05:23:10.481Z,13.17
2022-12-09T05:26:15.253Z,12.20
2022-12-09T05:29:22.569Z,12.40
2022-12-09T05:32:25.400Z,12.65
2022-12-09T05:35:27.353Z,12.82
2022-12-09T05:38:30.020Z,12.70
2022-12-09T05:41:31.928Z,12.93
2022-12-09T05:44:33.891Z,12.33
2022-12-09T05:47:35.550Z,12.88
2022-12-09T05:50:37.807Z,12.57
2022-12-09T05:53:39.691Z,12.90
2022-12-09T05:56:46.350Z,12.40
2022-12-09T05:59:49.761Z,12.73
2022-12-09T06:02:51.825Z,12.43
2022-12-09T06:05:53.816Z,12.82
2022-12-09T06:08:58.674Z,13.23
2022-12-09T06:12:01.244Z,11.65
2022-12-09T06:15:03.420Z,11.47
2022-12-09T06:18:05.588Z,12.68
2022-12-09T06:21:09.912Z,12.65
2022-12-09T06:24:11.779Z,12.00
2022-12-09T06:27:13.480Z,12.95
2022-12-09T06:30:15.539Z,13.57
2022-12-09T06:33:44.998Z,12.32
2022-12-09T06:36:39.236Z,12.63
2022-12-09T06:39:41.271Z,12.57
2022-12-09T06:42:43.240Z,13.27
2022-12-09T06:45:45.116Z,11.77
2022-12-09T06:48:47.267Z,13.10
2022-12-09T06:51:49.227Z,12.60
2022-12-09T06:54:51.165Z,12.20
2022-12-09T06:57:52.893Z,13.02
2022-12-09T07:00:54.502Z,12.18
2022-12-09T07:03:57.145Z,11.70
2022-12-09T07:06:59.188Z,11.73
2022-12-09T07:10:06.659Z,11.68
2022-12-09T07:13:08.602Z,10.65
2022-12-09T07:16:10.320Z,11.13
2022-12-09T07:19:18.215Z,11.63
2022-12-09T07:22:20.353Z,10.65
2022-12-09T07:25:22.099Z,10.37
2022-12-09T07:28:24.425Z,11.02
2022-12-09T07:31:28.570Z,10.02
2022-12-09T07:34:30.747Z,10.50
2022-12-09T07:37:32.433Z,10.63
2022-12-09T07:40:34.196Z,10.48
2022-12-09T07:43:36.770Z,9.45
2022-12-09T07:46:39.747Z,9.80
2022-12-09T07:49:41.504Z,10.27
2022-12-09T07:52:43.445Z,10.13
2022-12-09T07:55:45.293Z,10.57
2022-12-09T07:58:48.754Z,8.95
2022-12-09T08:01:50.496Z,10.25
2022-12-09T08:04:52.699Z,10.20
2022-12-09T08:07:54.709Z,10.85
2022-12-09T08:10:57.069Z,11.85
2022-12-09T08:14:07.254Z,11.88
2022-12-09T08:17:12.734Z,11.10
2022-12-09T08:20:15.506Z,11.13
2022-12-09T08:23:17.477Z,11.65
2022-12-09T08:26:21.403Z,12.43
2022-12-09T08:29:23.210Z,11.75
2022-12-09T08:32:25.663Z,12.13
2022-12-09T08:35:29.975Z,12.55
2022-12-09T08:38:32.031Z,11.73
2022-12-09T08:41:37.590Z,12.43
2022-12-09T08:44:40.100Z,12.35
2022-12-09T08:47:42.840Z,12.43
2022-12-09T08:50:44.736Z,11.65
2022-12-09T08:53:46.852Z,12.13
2022-12-09T08:56:51.626Z,12.13
2022-12-09T08:59:53.208Z,11.80
2022-12-09T09:02:55.025Z,12.35
2022-12-09T09:06:09.652Z,12.70
2022-12-09T09:09:14.266Z,12.05
2022-12-09T09:12:16.169Z,12.63
2022-12-09T09:15:18.136Z,12.90
2022-12-09T09:18:19.882Z,13.57
2022-12-09T09:21:24.301Z,13.55
2022-12-09T09:24:26.711Z,12.93
2022-12-09T09:27:29.020Z,13.37
2022-12-09T09:30:30.721Z,12.50
2022-12-09T09:33:32.657Z,13.88
2022-12-09T09:36:34.778Z,13.55
2022-12-09T09:39:36.806Z,12.77
2022-12-09T09:42:47.940Z,13.43
2022-12-09T09:45:50.625Z,12.73
2022-12-09T09:48:53.724Z,13.47
2022-12-09T09:51:55.798Z,13.70
2022-12-09T09:54:58.623Z,14.68
2022-12-09T09:58:18.017Z,13.77
2022-12-09T10:01:21.279Z,14.32
2022-12-09T10:04:33.702Z,15.50
2022-12-09T10:07:44.729Z,13.13
2022-12-09T10:11:01.955Z,12.40
2022-12-09T10:14:28.791Z,12.60
2022-12-09T10:17:55.476Z,13.10
2022-12-09T10:20:57.457Z,13.17
2022-12-09T10:24:15.888Z,13.52
2022-12-09T10:27:53.295Z,13.50
2022-12-09T10:35:48.993Z,13.43
2022-12-09T10:38:51.648Z,13.00
2022-12-09T10:42:15.403Z,13.32
2022-12-09T10:45:17.168Z,15.38
2022-12-09T10:48:32.954Z,13.32
2022-12-09T10:51:36.543Z,14.30
2022-12-09T10:54:49.607Z,13.57
2022-12-09T10:57:52.612Z,13.68
2022-12-09T11:01:07.792Z,13.95
2022-12-09T11:04:13.295Z,14.13
2022-12-09T11:07:19.071Z,14.85
2022-12-09T11:10:25.184Z,14.88
2022-12-09T11:13:37.864Z,14.88
2022-12-09T11:16:40.040Z,13.38
2022-12-09T11:19:43.515Z,14.60
2022-12-09T11:22:46.678Z,14.38
2022-12-09T11:25:51.708Z,14.27
2022-12-09T11:29:26.204Z,14.05
2022-12-09T11:32:28.363Z,12.98
2022-12-09T11:35:39.253Z,13.77
2022-12-09T11:38:49.488Z,13.80
2022-12-09T11:42:17.133Z,13.98
2022-12-09T11:45:31.394Z,14.25
2022-12-09T11:48:41.757Z,13.65
2022-12-09T11:52:03.050Z,13.45
2022-12-09T11:55:24.204Z,13.75
2022-12-09T11:58:39.177Z,13.43
2022-12-09T12:01:50.152Z,14.73
2022-12-09T12:05:01.417Z,13.15
2022-12-09T12:08:17.047Z,13.97
2022-12-09T12:11:36.146Z,13.60
2022-12-09T12:14:41.221Z,13.40
2022-12-09T12:17:50.385Z,13.30
2022-12-09T12:21:13.789Z,13.35
2022-12-09T12:24:18.147Z,13.68
2022-12-09T12:27:57.266Z,16.33
2022-12-09T12:31:25.837Z,14.03
2022-12-09T12:34:27.427Z,13.35
2022-12-09T12:37:56.318Z,14.82
2022-12-09T12:41:24.280Z,14.43
2022-12-09T12:44:51.907Z,13.95
2022-12-09T12:48:49.026Z,15.40
2022-12-09T12:52:54.471Z,13.30
2022-12-09T12:55:52.511Z,12.93
2022-12-09T12:59:08.811Z,12.00
2022-12-09T13:02:24.586Z,12.40
2022-12-09T13:05:37.549Z,13.03
2022-12-09T13:08:48.703Z,13.45
2022-12-09T13:12:11.814Z,13.85
2022-12-09T13:15:19.804Z,12.57
2022-12-09T13:18:31.483Z,12.45
2022-12-09T13:21:34.864Z,12.77
2022-12-09T13:24:43.221Z,14.55
2022-12-09T13:28:06.419Z,13.13
2022-12-09T13:31:09.902Z,13.07
2022-12-09T13:34:20.601Z,12.55
2022-12-09T13:37:34.705Z,15.83
2022-12-09T13:40:38.898Z,14.65
2022-12-09T13:43:40.669Z,13.85
2022-12-09T13:46:42.951Z,16.30
2022-12-09T13:49:57.106Z,14.77
2022-12-09T13:53:02.356Z,15.80
2022-12-09T13:56:06.620Z,14.38
2022-12-09T13:59:32.238Z,21.23
2022-12-09T14:02:43.261Z,12.90
2022-12-09T14:05:49.741Z,12.63
2022-12-09T14:08:55.773Z,11.97
2022-12-09T14:12:00.429Z,11.88
2022-12-09T14:15:23.953Z,12.48
2022-12-09T14:18:32.727Z,13.60
2022-12-09T14:21:34.820Z,12.38
2022-12-09T14:24:36.684Z,14.63
2022-12-09T14:27:38.282Z,13.13
2022-12-09T14:30:45.836Z,12.13
2022-12-09T14:33:47.680Z,13.10
2022-12-09T14:36:59.911Z,11.63
2022-12-09T14:40:13.986Z,12.03
2022-12-09T14:43:53.240Z,11.60
2022-12-09T14:47:15.887Z,11.57
2022-12-09T14:50:23.424Z,11.43
2022-12-09T14:53:25.747Z,11.07
2022-12-09T14:56:29.521Z,11.90
2022-12-09T14:59:32.777Z,12.70
2022-12-09T15:02:34.477Z,11.73
2022-12-09T15:05:38.514Z,12.10
2022-12-09T15:08:41.359Z,10.95
2022-12-09T15:11:42.971Z,11.50
2022-12-09T15:14:46.541Z,10.57
2022-12-09T15:18:07.563Z,10.68
2022-12-09T15:21:09.455Z,14.53
2022-12-09T15:24:14.138Z,12.77
2022-12-09T15:27:22.125Z,15.52
2022-12-09T15:30:30.181Z,25.75
2022-12-09T15:33:39.532Z,29.23
2022-12-09T15:36:49.619Z,12.60
2022-12-09T15:40:02.934Z,10.25
2022-12-09T15:43:11.045Z,10.20
2022-12-09T15:46:13.492Z,10.15
2022-12-09T15:49:21.650Z,11.90
2022-12-09T15:52:29.073Z,12.57
2022-12-09T15:55:51.508Z,11.43
2022-12-09T15:58:58.237Z,12.65
2022-12-09T16:02:00.811Z,11.15
2022-12-09T16:05:05.484Z,10.98
2022-12-09T16:08:07.280Z,12.55
2022-12-09T16:11:09.983Z,10.90
2022-12-09T16:14:12.632Z,11.07
2022-12-09T16:17:23.360Z,11.15
2022-12-09T16:20:40.136Z,10.80
2022-12-09T16:23:46.943Z,11.40
2022-12-09T16:26:51.369Z,11.27
2022-12-09T16:30:01.822Z,11.60
2022-12-09T16:33:03.482Z,11.30
2022-12-09T16:36:07.276Z,11.27
2022-12-09T16:39:08.791Z,11.60
2022-12-09T16:42:29.234Z,11.45
2022-12-09T16:45:37.370Z,11.00
2022-12-09T16:48:39.031Z,12.85
2022-12-09T16:51:40.669Z,11.80
2022-12-09T16:54:44.559Z,12.60
2022-12-09T16:57:46.120Z,13.32
2022-12-09T17:00:48.297Z,12.02
2022-12-09T17:03:53.466Z,11.63
2022-12-09T17:06:55.156Z,11.32
2022-12-09T17:09:56.727Z,11.82
2022-12-09T17:12:58.292Z,11.27
2022-12-09T17:16:00.054Z,11.77
2022-12-09T17:19:02.652Z,11.90
2022-12-09T17:22:04.207Z,13.57
2022-12-09T17:25:06.433Z,12.23
2022-12-09T17:28:08.471Z,13.00
2022-12-09T17:31:12.894Z,13.32
2022-12-09T17:34:14.422Z,12.73
2022-12-09T17:37:16.271Z,13.35
2022-12-09T17:40:17.879Z,13.55
2022-12-09T17:43:19.688Z,12.90
2022-12-09T17:46:21.517Z,12.67
2022-12-09T17:49:23.190Z,14.10
2022-12-09T17:52:24.909Z,12.55
2022-12-09T17:55:30.064Z,13.20
2022-12-09T17:58:32.070Z,12.80
2022-12-09T18:01:43.853Z,22.20
2022-12-09T18:04:48.898Z,13.82
2022-12-09T18:07:52.669Z,13.23
2022-12-09T18:10:55.459Z,22.63
2022-12-09T18:13:58.090Z,14.25
2022-12-09T18:17:03.267Z,13.10
2022-12-09T18:20:09.158Z,14.77
2022-12-09T18:23:13.289Z,15.30
2022-12-09T18:26:19.020Z,15.77
2022-12-09T18:29:22.614Z,14.23
2022-12-09T18:32:25.523Z,15.35
2022-12-09T18:35:39.937Z,14.32
2022-12-09T18:38:46.190Z,14.43
2022-12-09T18:41:52.468Z,14.68
2022-12-09T18:44:55.776Z,14.13
2022-12-09T18:47:59.111Z,14.70
2022-12-09T18:51:01.302Z,13.00
2022-12-09T18:54:04.020Z,13.23
2022-12-09T18:57:05.609Z,13.60
2022-12-09T19:00:08.397Z,14.65
2022-12-09T19:03:10.113Z,13.63
2022-12-09T19:06:20.909Z,12.63
2022-12-09T19:12:57.013Z,14.82
2022-12-09T19:16:03.946Z,13.60
2022-12-09T19:19:10.143Z,15.63
2022-12-09T19:22:12.325Z,15.05
2022-12-09T19:25:13.998Z,15.50
2022-12-09T19:28:17.455Z,14.73
2022-12-09T19:31:26.797Z,14.23
2022-12-09T19:34:29.754Z,12.35
2022-12-09T19:37:31.429Z,14.82
2022-12-09T19:40:33.019Z,12.45
2022-12-09T19:43:35.252Z,12.38
2022-12-09T19:46:38.406Z,12.32
2022-12-09T19:49:42.100Z,12.97
2022-12-09T19:52:43.974Z,16.67
2022-12-09T19:55:46.142Z,18.33
2022-12-09T19:58:49.425Z,16.63
2022-12-09T20:01:51.487Z,15.98
2022-12-09T20:04:55.650Z,12.45
2022-12-09T20:07:57.404Z,11.75
2022-12-09T20:10:59.106Z,12.05
2022-12-09T20:17:31.066Z,12.05
2022-12-09T20:20:33.773Z,11.87
2022-12-09T20:23:36.821Z,12.52
2022-12-09T20:26:38.710Z,13.65
2022-12-09T20:29:40.375Z,12.97
2022-12-09T20:32:43.830Z,13.40
2022-12-09T20:35:45.489Z,12.35
2022-12-09T20:39:02.425Z,12.52
2022-12-09T20:42:04.134Z,11.82
2022-12-09T20:45:06.890Z,12.88
2022-12-09T20:48:08.481Z,11.90
2022-12-09T20:51:14.794Z,11.70
2022-12-09T20:54:16.445Z,13.07
2022-12-09T20:57:18.021Z,12.10
2022-12-09T21:00:19.542Z,13.03
2022-12-09T21:03:21.144Z,11.48
2022-12-09T21:06:24.959Z,12.65
2022-12-09T21:09:27.207Z,12.88
2022-12-09T21:12:28.928Z,11.52
2022-12-09T21:15:30.480Z,11.63
2022-12-09T21:18:32.281Z,12.00
2022-12-09T21:21:36.117Z,12.50
2022-12-09T21:24:38.189Z,13.65
2022-12-09T21:27:39.952Z,12.68
2022-12-09T21:30:41.481Z,14.50
2022-12-09T21:33:44.805Z,12.98
2022-12-09T21:36:46.540Z,13.25
2022-12-09T21:39:48.076Z,12.73
2022-12-09T21:42:49.606Z,13.05
2022-12-09T21:45:51.199Z,13.85
2022-12-09T21:48:59.939Z,13.25
2022-12-09T21:52:06.613Z,13.10
2022-12-09T21:55:08.554Z,12.85
2022-12-09T21:58:10.140Z,12.57
2022-12-09T22:01:36.012Z,13.00
2022-12-09T22:04:38.042Z,12.32
2022-12-09T22:07:39.751Z,13.77
2022-12-09T22:10:41.808Z,14.13
2022-12-09T22:13:44.406Z,14.00
2022-12-09T22:16:46.629Z,15.38
2022-12-09T22:20:01.094Z,14.43
2022-12-09T22:23:11.006Z,14.07
2022-12-09T22:26:15.911Z,14.55
2022-12-09T22:29:18.324Z,14.98
2022-12-09T22:32:20.290Z,14.53
2022-12-09T22:35:21.937Z,15.15
2022-12-09T22:38:23.673Z,14.75
2022-12-09T22:41:28.267Z,15.32
2022-12-09T22:44:30.079Z,15.38
2022-12-09T22:47:31.809Z,14.13
2022-12-09T22:50:35.639Z,14.23
2022-12-09T22:53:38.020Z,13.70
2022-12-09T22:56:42.524Z,14.98
2022-12-09T22:59:44.527Z,14.77
2022-12-09T23:02:46.210Z,15.33
2022-12-09T23:05:48.009Z,14.77
2022-12-09T23:08:49.724Z,14.00
2022-12-09T23:11:52.366Z,14.95
2022-12-09T23:14:54.116Z,13.88
2022-12-09T23:17:55.949Z,14.45
2022-12-09T23:21:28.386Z,14.70
2022-12-09T23:24:31.098Z,13.40
2022-12-09T23:27:32.749Z,14.85
2022-12-09T23:30:34.769Z,13.85
2022-12-09T23:33:37.813Z,13.73
2022-12-09T23:36:41.308Z,14.80
2022-12-09T23:39:43.319Z,13.95
2022-12-09T23:42:44.978Z,14.90
2022-12-09T23:45:47.695Z,14.02
2022-12-09T23:48:50.781Z,14.60
2022-12-09T23:51:52.365Z,14.20
2022-12-09T23:54:53.889Z,13.27
2022-12-09T23:57:55.483Z,14.18
